createdAt,value
2022-09-15T00:00:28.951Z,14.26
2022-09-15T00:03:34.157Z,14.24
2022-09-15T00:06:38.707Z,14.25
2022-09-15T00:09:43.055Z,14.24
2022-09-15T00:12:47.070Z,14.22
2022-09-15T00:15:52.102Z,14.19
2022-09-15T00:18:57.285Z,14.16
2022-09-15T00:22:02.284Z,14.15
2022-09-15T00:25:06.657Z,14.14
2022-09-15T00:28:11.421Z,14.12
2022-09-15T00:31:19.918Z,14.09
2022-09-15T00:34:24.156Z,14.05
2022-09-15T00:37:28.373Z,14.07
2022-09-15T00:40:33.405Z,14.08
2022-09-15T00:43:57.763Z,14.10
2022-09-15T00:47:18.851Z,14.08
2022-09-15T00:50:24.247Z,14.09
2022-09-15T00:53:30.498Z,14.06
2022-09-15T00:56:36.551Z,14.04
2022-09-15T00:59:42.813Z,14.03
2022-09-15T01:02:48.426Z,13.99
2022-09-15T01:06:04.247Z,14.00
2022-09-15T01:09:27.603Z,13.99
2022-09-15T01:12:31.955Z,13.94
2022-09-15T01:16:19.450Z,13.90
2022-09-15T01:20:01.728Z,13.87
2022-09-15T01:23:28.941Z,13.80
2022-09-15T01:26:54.862Z,13.77
2022-09-15T01:30:01.794Z,13.67
2022-09-15T01:33:20.099Z,13.65
2022-09-15T01:36:47.348Z,13.62
2022-09-15T01:39:54.440Z,13.61
2022-09-15T01:43:01.975Z,13.61
2022-09-15T01:46:07.229Z,13.60
2022-09-15T01:49:16.625Z,13.50
2022-09-15T01:52:24.255Z,13.42
2022-09-15T01:56:06.834Z,13.54
2022-09-15T01:59:11.823Z,13.62
2022-09-15T02:02:24.201Z,13.68
2022-09-15T02:05:37.299Z,13.72
2022-09-15T02:08:49.858Z,13.68
2022-09-15T02:12:08.772Z,13.63
2022-09-15T02:15:20.458Z,13.64
2022-09-15T02:18:48.615Z,13.64
2022-09-15T02:22:12.119Z,13.60
2022-09-15T02:25:31.210Z,13.56
2022-09-15T02:28:39.528Z,13.44
2022-09-15T02:31:45.309Z,13.29
2022-09-15T02:34:54.614Z,13.31
2022-09-15T02:38:00.476Z,13.26
2022-09-15T02:41:05.937Z,13.17
2022-09-15T02:44:10.465Z,13.11
2022-09-15T02:47:14.873Z,13.13
2022-09-15T02:50:20.443Z,13.13
2022-09-15T02:53:24.805Z,13.14
2022-09-15T02:56:28.968Z,13.14
2022-09-15T02:59:52.183Z,13.15
2022-09-15T03:02:58.315Z,13.18
2022-09-15T03:06:17.914Z,13.18
2022-09-15T03:09:22.277Z,13.16
2022-09-15T03:12:26.873Z,13.16
2022-09-15T03:15:31.320Z,13.16
2022-09-15T03:18:37.622Z,13.18
2022-09-15T03:21:42.212Z,13.22
2022-09-15T03:24:46.801Z,13.24
2022-09-15T03:27:51.533Z,13.21
2022-09-15T03:30:56.547Z,13.18
2022-09-15T03:34:00.993Z,13.19
2022-09-15T03:37:05.864Z,13.12
2022-09-15T03:40:10.847Z,13.10
2022-09-15T03:43:18.649Z,13.04
2022-09-15T03:46:23.600Z,13.02
2022-09-15T03:49:27.586Z,12.97
2022-09-15T03:52:32.416Z,12.98
2022-09-15T03:55:37.264Z,13.02
2022-09-15T03:58:41.759Z,13.03
2022-09-15T04:01:48.269Z,13.05
2022-09-15T04:04:52.863Z,12.98
2022-09-15T04:07:57.019Z,12.88
2022-09-15T04:11:06.158Z,12.83
2022-09-15T04:14:10.722Z,12.79
2022-09-15T04:17:16.135Z,12.80
2022-09-15T04:20:20.310Z,12.80
2022-09-15T04:23:24.719Z,12.80
2022-09-15T04:26:37.185Z,12.76
2022-09-15T04:29:42.188Z,12.73
2022-09-15T04:32:46.631Z,12.82
2022-09-15T04:35:57.818Z,12.85
2022-09-15T04:39:02.635Z,12.81
2022-09-15T04:42:07.901Z,12.81
2022-09-15T04:45:12.336Z,12.77
2022-09-15T04:48:16.939Z,12.74
2022-09-15T04:51:23.402Z,12.73
2022-09-15T04:54:27.971Z,12.77
2022-09-15T04:57:33.546Z,12.76
2022-09-15T05:00:43.625Z,12.73
2022-09-15T05:03:49.299Z,12.72
2022-09-15T05:06:53.869Z,12.74
2022-09-15T05:09:58.351Z,12.75
2022-09-15T05:13:02.921Z,12.72
2022-09-15T05:16:12.558Z,12.73
2022-09-15T05:19:16.998Z,12.78
2022-09-15T05:22:21.163Z,12.83
2022-09-15T05:25:25.367Z,12.87
2022-09-15T05:28:31.593Z,12.95
2022-09-15T05:31:36.196Z,12.93
2022-09-15T05:34:40.467Z,12.93
2022-09-15T05:37:44.417Z,12.81
2022-09-15T05:40:50.171Z,12.70
2022-09-15T05:44:00.001Z,12.58
2022-09-15T05:47:04.547Z,12.55
2022-09-15T05:50:11.087Z,12.53
2022-09-15T05:53:15.768Z,12.45
2022-09-15T05:56:20.649Z,12.52
2022-09-15T05:59:25.279Z,12.50
2022-09-15T06:02:29.949Z,12.52
2022-09-15T06:05:34.620Z,12.55
2022-09-15T06:08:48.253Z,12.58
2022-09-15T06:11:53.418Z,12.54
2022-09-15T06:14:58.200Z,12.54
2022-09-15T06:18:02.779Z,12.52
2022-09-15T06:21:16.466Z,12.58
2022-09-15T06:24:20.608Z,12.62
2022-09-15T06:27:25.831Z,12.68
2022-09-15T06:30:30.613Z,12.73
2022-09-15T06:33:34.930Z,12.77
2022-09-15T06:36:39.258Z,12.81
2022-09-15T06:39:44.368Z,12.88
2022-09-15T06:42:49.018Z,12.95
2022-09-15T06:45:53.403Z,12.94
2022-09-15T06:48:57.747Z,12.97
2022-09-15T06:52:02.682Z,12.98
2022-09-15T06:55:07.500Z,13.03
2022-09-15T06:58:11.823Z,13.06
2022-09-15T07:01:28.279Z,13.09
2022-09-15T07:04:36.945Z,13.16
2022-09-15T07:07:41.618Z,13.21
2022-09-15T07:10:46.603Z,13.24
2022-09-15T07:13:51.479Z,13.32
2022-09-15T07:16:55.684Z,13.33
2022-09-15T07:20:01.242Z,13.35
2022-09-15T07:23:05.588Z,13.34
2022-09-15T07:26:16.482Z,13.34
2022-09-15T07:29:21.366Z,13.41
2022-09-15T07:32:26.016Z,13.47
2022-09-15T07:35:30.414Z,13.53
2022-09-15T07:38:47.943Z,13.55
2022-09-15T07:41:52.429Z,13.61
2022-09-15T07:44:57.192Z,13.68
2022-09-15T07:48:02.399Z,13.82
2022-09-15T07:51:06.692Z,13.88
2022-09-15T07:54:11.188Z,14.01
2022-09-15T07:57:15.898Z,14.09
2022-09-15T08:00:20.543Z,14.11
2022-09-15T08:03:24.969Z,14.21
2022-09-15T08:06:29.876Z,14.27
2022-09-15T08:09:34.327Z,14.38
2022-09-15T08:12:38.888Z,14.46
2022-09-15T08:15:44.035Z,14.52
2022-09-15T08:18:49.289Z,14.59
2022-09-15T08:21:53.744Z,14.69
2022-09-15T08:24:58.107Z,14.73
2022-09-15T08:28:02.545Z,14.77
2022-09-15T08:31:09.630Z,14.79
2022-09-15T08:34:16.542Z,14.80
2022-09-15T08:37:21.227Z,14.92
2022-09-15T08:40:37.228Z,15.17
2022-09-15T08:44:08.076Z,15.26
2022-09-15T08:47:29.371Z,15.26
2022-09-15T08:50:39.209Z,15.20
2022-09-15T08:53:52.173Z,15.10
2022-09-15T08:56:58.485Z,15.00
2022-09-15T09:00:03.779Z,14.85
2022-09-15T09:03:36.775Z,14.88
2022-09-15T09:06:59.416Z,15.05
2022-09-15T09:10:41.626Z,15.23
2022-09-15T09:14:10.708Z,15.46
2022-09-15T09:17:49.805Z,15.83
2022-09-15T09:21:18.046Z,15.74
2022-09-15T09:24:46.866Z,15.46
2022-09-15T09:27:51.367Z,15.30
2022-09-15T09:31:07.110Z,15.20
2022-09-15T09:34:31.742Z,15.19
2022-09-15T09:37:37.030Z,15.26
2022-09-15T09:40:41.409Z,15.32
2022-09-15T09:43:49.155Z,15.34
2022-09-15T09:46:53.675Z,15.35
2022-09-15T09:49:58.071Z,15.32
2022-09-15T09:53:39.916Z,15.24
2022-09-15T09:56:45.398Z,15.37
2022-09-15T09:59:50.917Z,15.41
2022-09-15T10:02:55.658Z,15.54
2022-09-15T10:06:07.175Z,15.70
2022-09-15T10:09:18.329Z,15.79
2022-09-15T10:12:34.011Z,15.43
2022-09-15T10:15:38.774Z,15.11
2022-09-15T10:18:43.612Z,14.97
2022-09-15T10:21:47.913Z,15.07
2022-09-15T10:24:53.282Z,15.23
2022-09-15T10:28:17.585Z,15.52
2022-09-15T10:31:32.876Z,15.75
2022-09-15T10:34:37.350Z,15.44
2022-09-15T10:37:57.712Z,14.75
2022-09-15T10:41:27.393Z,14.27
2022-09-15T10:44:50.496Z,14.01
2022-09-15T10:48:34.111Z,13.87
2022-09-15T10:52:11.929Z,13.91
2022-09-15T10:55:54.877Z,14.05
2022-09-15T10:59:42.150Z,14.18
2022-09-15T11:03:14.550Z,14.38
2022-09-15T11:06:24.699Z,14.55
2022-09-15T11:09:41.247Z,14.66
2022-09-15T11:13:00.652Z,14.87
2022-09-15T11:16:41.051Z,15.10
2022-09-15T11:20:18.888Z,15.29
2022-09-15T11:23:39.877Z,15.47
2022-09-15T11:27:11.130Z,15.53
2022-09-15T11:30:20.906Z,15.57
2022-09-15T11:33:46.984Z,15.73
2022-09-15T11:37:09.866Z,15.88
2022-09-15T11:40:24.906Z,16.08
2022-09-15T11:44:07.257Z,16.25
2022-09-15T11:47:39.864Z,16.27
2022-09-15T11:50:49.114Z,16.38
2022-09-15T11:54:03.950Z,16.42
2022-09-15T11:57:32.115Z,16.41
2022-09-15T12:00:48.633Z,16.47
2022-09-15T12:04:20.521Z,16.67
2022-09-15T12:07:32.747Z,16.75
2022-09-15T12:10:43.343Z,16.77
2022-09-15T12:13:49.275Z,16.81
2022-09-15T12:16:56.218Z,16.85
2022-09-15T12:20:43.636Z,16.77
2022-09-15T12:24:16.665Z,16.70
2022-09-15T12:27:21.551Z,16.80
2022-09-15T12:30:41.461Z,16.85
2022-09-15T12:33:54.602Z,16.68
2022-09-15T12:37:15.248Z,16.56
2022-09-15T12:40:40.359Z,16.55
2022-09-15T12:43:58.592Z,16.56
2022-09-15T12:47:07.632Z,16.65
2022-09-15T12:50:32.156Z,16.77
2022-09-15T12:53:46.261Z,16.87
2022-09-15T12:56:53.372Z,16.89
2022-09-15T13:00:22.494Z,16.89
2022-09-15T13:03:37.851Z,16.92
2022-09-15T13:07:17.315Z,16.91
2022-09-15T13:10:33.466Z,16.84
2022-09-15T13:13:48.250Z,16.76
2022-09-15T13:17:07.016Z,16.62
2022-09-15T13:20:21.811Z,16.48
2022-09-15T13:23:33.685Z,16.31
2022-09-15T13:26:38.913Z,16.00
2022-09-15T13:30:29.678Z,15.68
2022-09-15T13:38:05.363Z,15.41
2022-09-15T13:42:10.246Z,15.32
2022-09-15T13:45:48.474Z,15.31
2022-09-15T13:49:22.582Z,15.14
2022-09-15T13:53:06.781Z,14.98
2022-09-15T13:56:25.141Z,14.94
2022-09-15T13:59:32.573Z,14.99
2022-09-15T14:02:36.935Z,15.10
2022-09-15T14:05:41.947Z,15.25
2022-09-15T14:08:52.855Z,15.29
2022-09-15T14:12:09.587Z,15.35
2022-09-15T14:15:24.008Z,15.44
2022-09-15T14:18:30.510Z,15.52
2022-09-15T14:21:47.574Z,15.64
2022-09-15T14:24:53.087Z,15.69
2022-09-15T14:27:57.678Z,15.72
2022-09-15T14:31:02.916Z,15.69
2022-09-15T14:34:17.093Z,15.68
2022-09-15T14:37:29.415Z,15.61
2022-09-15T14:40:39.494Z,15.52
2022-09-15T14:43:44.499Z,15.46
2022-09-15T14:46:48.958Z,15.46
2022-09-15T14:50:21.043Z,15.53
2022-09-15T14:53:26.965Z,15.56
2022-09-15T14:56:41.193Z,15.69
2022-09-15T14:59:56.901Z,15.86
2022-09-15T15:03:27.692Z,15.89
2022-09-15T15:06:58.864Z,15.83
2022-09-15T15:10:17.402Z,15.75
2022-09-15T15:13:22.462Z,15.63
2022-09-15T15:16:30.978Z,15.57
2022-09-15T15:19:42.125Z,15.52
2022-09-15T15:22:46.943Z,15.47
2022-09-15T15:25:53.268Z,15.11
2022-09-15T15:29:41.319Z,14.80
2022-09-15T15:32:46.068Z,14.64
2022-09-15T15:36:09.696Z,14.33
2022-09-15T15:39:25.276Z,14.00
2022-09-15T15:42:30.257Z,13.71
2022-09-15T15:45:47.131Z,13.51
2022-09-15T15:48:52.269Z,13.40
2022-09-15T15:51:59.064Z,13.29
2022-09-15T15:55:05.622Z,13.19
2022-09-15T15:58:13.132Z,13.22
2022-09-15T16:01:17.913Z,13.19
2022-09-15T16:04:22.883Z,13.09
2022-09-15T16:07:33.155Z,12.96
2022-09-15T16:10:47.763Z,12.84
2022-09-15T16:13:52.754Z,12.81
2022-09-15T16:17:00.447Z,12.75
2022-09-15T16:20:05.777Z,12.72
2022-09-15T16:23:15.713Z,12.74
2022-09-15T16:26:23.950Z,12.82
2022-09-15T16:29:36.171Z,12.90
2022-09-15T16:32:41.291Z,12.97
2022-09-15T16:36:03.935Z,13.05
2022-09-15T16:39:08.343Z,13.10
2022-09-15T16:42:12.904Z,13.14
2022-09-15T16:45:33.969Z,13.17
2022-09-15T16:48:43.455Z,13.21
2022-09-15T16:51:48.530Z,13.25
2022-09-15T16:54:53.389Z,13.23
2022-09-15T16:58:00.127Z,13.23
2022-09-15T17:01:05.011Z,13.18
2022-09-15T17:04:15.798Z,13.14
2022-09-15T17:07:20.310Z,13.02
2022-09-15T17:10:25.103Z,12.91
2022-09-15T17:13:33.135Z,12.78
2022-09-15T17:16:38.059Z,12.71
2022-09-15T17:19:42.330Z,12.66
2022-09-15T17:22:48.165Z,12.56
2022-09-15T17:26:01.603Z,12.50
2022-09-15T17:29:06.646Z,12.47
2022-09-15T17:32:11.245Z,12.45
2022-09-15T17:35:25.562Z,12.45
2022-09-15T17:38:30.082Z,12.38
2022-09-15T17:41:35.171Z,12.43
2022-09-15T17:44:39.547Z,12.42
2022-09-15T17:47:44.195Z,12.47
2022-09-15T17:50:49.471Z,12.47
2022-09-15T17:53:54.972Z,12.48
2022-09-15T17:56:59.903Z,12.48
2022-09-15T18:00:05.434Z,12.51
2022-09-15T18:03:27.875Z,12.53
2022-09-15T18:06:32.817Z,12.58
2022-09-15T18:09:37.306Z,12.59
2022-09-15T18:12:45.629Z,12.58
2022-09-15T18:15:53.589Z,12.59
2022-09-15T18:18:57.875Z,12.60
2022-09-15T18:22:02.096Z,12.66
2022-09-15T18:25:23.022Z,12.63
2022-09-15T18:28:28.011Z,12.59
2022-09-15T18:31:32.762Z,12.63
2022-09-15T18:34:37.096Z,12.57
2022-09-15T18:37:43.013Z,12.50
2022-09-15T18:40:53.566Z,12.45
2022-09-15T18:43:58.343Z,12.41
2022-09-15T18:47:02.585Z,12.46
2022-09-15T18:50:07.808Z,12.38
2022-09-15T18:53:12.841Z,12.39
2022-09-15T18:56:17.507Z,12.42
2022-09-15T18:59:22.144Z,12.42
2022-09-15T19:02:26.599Z,12.43
2022-09-15T19:05:32.288Z,12.41
2022-09-15T19:08:37.035Z,12.39
2022-09-15T19:11:44.685Z,12.41
2022-09-15T19:14:52.398Z,12.41
2022-09-15T19:17:56.859Z,12.46
2022-09-15T19:21:14.061Z,12.43
2022-09-15T19:24:18.397Z,12.41
2022-09-15T19:27:23.225Z,12.41
2022-09-15T19:30:29.705Z,12.40
2022-09-15T19:33:34.837Z,12.42
2022-09-15T19:36:39.670Z,12.41
2022-09-15T19:39:44.779Z,12.36
2022-09-15T19:42:50.031Z,12.37
2022-09-15T19:45:54.129Z,12.34
2022-09-15T19:48:59.265Z,12.27
2022-09-15T19:52:06.279Z,12.31
2022-09-15T19:55:15.636Z,12.29
2022-09-15T19:58:20.167Z,12.24
2022-09-15T20:01:28.797Z,12.24
2022-09-15T20:04:33.528Z,12.18
2022-09-15T20:07:37.968Z,12.15
2022-09-15T20:10:42.183Z,12.08
2022-09-15T20:13:46.674Z,12.02
2022-09-15T20:16:51.062Z,11.94
2022-09-15T20:19:55.960Z,11.95
2022-09-15T20:23:01.212Z,12.00
2022-09-15T20:26:08.864Z,12.04
2022-09-15T20:29:14.435Z,12.07
2022-09-15T20:32:22.794Z,12.03
2022-09-15T20:35:29.759Z,11.92
2022-09-15T20:38:36.075Z,11.86
2022-09-15T20:41:44.939Z,11.90
2022-09-15T20:44:49.504Z,11.87
2022-09-15T20:47:54.471Z,11.88
2022-09-15T20:51:10.529Z,11.83
2022-09-15T20:54:14.833Z,11.81
2022-09-15T20:57:19.374Z,11.78
2022-09-15T21:00:24.018Z,11.76
2022-09-15T21:03:28.642Z,11.70
2022-09-15T21:06:33.722Z,11.71
2022-09-15T21:09:38.341Z,11.72
2022-09-15T21:12:43.189Z,11.67
2022-09-15T21:15:59.479Z,11.70
2022-09-15T21:19:04.254Z,11.67
2022-09-15T21:22:08.600Z,11.64
2022-09-15T21:25:13.337Z,11.61
2022-09-15T21:28:17.658Z,11.63
2022-09-15T21:31:23.983Z,11.62
2022-09-15T21:34:28.451Z,11.60
2022-09-15T21:37:33.227Z,11.61
2022-09-15T21:40:38.698Z,11.60
2022-09-15T21:43:46.646Z,11.56
2022-09-15T21:46:52.659Z,11.57
2022-09-15T21:49:57.528Z,11.60
2022-09-15T21:53:02.150Z,11.57
2022-09-15T21:56:09.020Z,11.64
2022-09-15T21:59:14.270Z,11.68
2022-09-15T22:02:18.467Z,11.72
2022-09-15T22:05:22.788Z,11.69
2022-09-15T22:08:27.227Z,11.71
2022-09-15T22:11:33.603Z,11.64
2022-09-15T22:14:38.402Z,11.63
2022-09-15T22:17:42.647Z,11.64
2022-09-15T22:20:47.051Z,11.60
2022-09-15T22:23:54.050Z,11.58
2022-09-15T22:26:59.903Z,11.61
2022-09-15T22:30:05.373Z,11.57
2022-09-15T22:33:09.709Z,11.54
2022-09-15T22:36:30.411Z,11.58
2022-09-15T22:39:57.323Z,11.59
2022-09-15T22:42:58.994Z,11.61
2022-09-15T22:46:03.363Z,11.58
2022-09-15T22:49:07.448Z,11.62
2022-09-15T22:52:13.268Z,11.58
2022-09-15T22:55:19.050Z,11.53
2022-09-15T22:58:23.209Z,11.58
2022-09-15T23:01:31.099Z,11.57
2022-09-15T23:04:35.517Z,11.63
2022-09-15T23:07:39.792Z,11.66
2022-09-15T23:10:44.168Z,11.66
2022-09-15T23:13:48.936Z,11.64
2022-09-15T23:16:53.633Z,11.69
2022-09-15T23:19:57.815Z,11.78
2022-09-15T23:23:02.340Z,11.75
2022-09-15T23:26:10.144Z,11.69
2022-09-15T23:29:15.073Z,11.56
2022-09-15T23:32:19.578Z,11.49
2022-09-15T23:35:24.033Z,11.41
2022-09-15T23:38:29.025Z,11.38
2022-09-15T23:41:33.373Z,11.39
2022-09-15T23:44:37.694Z,11.39
2022-09-15T23:47:42.342Z,11.41
2022-09-15T23:50:46.964Z,11.40
2022-09-15T23:53:51.583Z,11.37
2022-09-15T23:56:55.919Z,11.22
